createdAt,value
2019-06-10T00:00:51.930Z,67.47
2019-06-10T00:01:51.897Z,67.47
2019-06-10T00:02:51.868Z,67.57
2019-06-10T00:03:51.964Z,67.68
2019-06-10T00:04:51.848Z,67.68
2019-06-10T00:05:51.887Z,67.57
2019-06-10T00:06:51.826Z,67.47
2019-06-10T00:07:51.840Z,67.47
2019-06-10T00:08:51.801Z,67.57
2019-06-10T00:09:51.789Z,67.57
2019-06-10T00:10:51.811Z,67.27
2019-06-10T00:11:51.802Z,67.07
2019-06-10T00:12:55.179Z,67.14
2019-06-10T00:13:51.757Z,66.74
2019-06-10T00:14:51.751Z,66.97
2019-06-10T00:15:51.770Z,66.97
2019-06-10T00:16:51.710Z,66.97
2019-06-10T00:18:01.369Z,67.27
2019-06-10T00:18:52.689Z,67.17
2019-06-10T00:19:51.696Z,67.17
2019-06-10T00:20:51.708Z,67.27
2019-06-10T00:21:51.660Z,67.37
2019-06-10T00:22:51.651Z,66.97
2019-06-10T00:23:51.920Z,66.77
2019-06-10T00:24:52.186Z,67.47
2019-06-10T00:25:51.745Z,67.68
2019-06-10T00:26:51.608Z,67.37
2019-06-10T00:27:51.625Z,66.97
2019-06-10T00:28:51.594Z,67.27
2019-06-10T00:29:51.581Z,67.37
2019-06-10T00:30:51.716Z,67.68
2019-06-10T00:31:51.604Z,67.47
2019-06-10T00:32:51.689Z,67.47
2019-06-10T00:33:52.045Z,67.44
2019-06-10T00:34:51.543Z,67.54
2019-06-10T00:35:51.628Z,67.34
2019-06-10T00:36:51.496Z,67.34
2019-06-10T00:37:51.510Z,67.37
2019-06-10T00:38:51.868Z,67.57
2019-06-10T00:39:51.495Z,68.01
2019-06-10T00:40:51.537Z,68.21
2019-06-10T00:41:52.135Z,68.31
2019-06-10T00:42:51.436Z,68.61
2019-06-10T00:43:51.808Z,68.81
2019-06-10T00:44:51.432Z,68.81
2019-06-10T00:45:51.562Z,69.01
2019-06-10T00:46:51.783Z,69.01
2019-06-10T00:48:06.578Z,68.91
2019-06-10T00:48:52.381Z,68.91
2019-06-10T00:49:51.613Z,69.01
2019-06-10T00:50:51.862Z,69.01
2019-06-10T00:51:51.335Z,68.41
2019-06-10T00:52:51.788Z,68.41
2019-06-10T00:53:51.560Z,68.61
2019-06-10T00:54:51.884Z,68.71
2019-06-10T00:55:51.684Z,68.71
2019-06-10T00:56:51.837Z,68.71
2019-06-10T00:57:51.275Z,68.81
2019-06-10T00:58:51.519Z,68.91
2019-06-10T00:59:51.275Z,68.81
2019-06-10T01:00:51.827Z,69.01
2019-06-10T01:01:51.225Z,69.12
2019-06-10T01:02:51.806Z,68.91
2019-06-10T01:03:51.236Z,68.61
2019-06-10T01:04:51.464Z,68.61
2019-06-10T01:05:51.221Z,68.61
2019-06-10T01:06:51.631Z,68.61
2019-06-10T01:07:51.156Z,68.81
2019-06-10T01:08:51.372Z,69.21
2019-06-10T01:09:51.716Z,68.98
2019-06-10T01:10:52.199Z,68.78
2019-06-10T01:11:51.957Z,68.28
2019-06-10T01:12:51.404Z,67.88
2019-06-10T01:13:51.180Z,68.08
2019-06-10T01:14:51.724Z,67.97
2019-06-10T01:15:51.240Z,67.97
2019-06-10T01:16:51.057Z,68.08
2019-06-10T01:17:51.220Z,68.48
2019-06-10T01:18:53.438Z,68.48
2019-06-10T01:19:51.074Z,68.88
2019-06-10T01:20:51.732Z,69.09
2019-06-10T01:21:51.349Z,69.09
2019-06-10T01:22:51.638Z,69.12
2019-06-10T01:23:51.128Z,69.01
2019-06-10T01:24:51.184Z,69.21
2019-06-10T01:25:51.166Z,69.82
2019-06-10T01:26:50.956Z,69.49
2019-06-10T01:27:51.540Z,68.88
2019-06-10T01:28:51.617Z,68.91
2019-06-10T01:29:51.199Z,68.91
2019-06-10T01:30:51.717Z,68.91
2019-06-10T01:31:51.356Z,69.01
2019-06-10T01:32:50.909Z,69.12
2019-06-10T01:33:51.450Z,69.21
2019-06-10T01:34:50.949Z,69.32
2019-06-10T01:35:51.479Z,69.21
2019-06-10T01:36:51.058Z,69.12
2019-06-10T01:37:52.007Z,69.21
2019-06-10T01:38:51.299Z,69.32
2019-06-10T01:39:51.528Z,69.52
2019-06-10T01:40:51.081Z,69.52
2019-06-10T01:41:51.179Z,69.62
2019-06-10T01:42:50.770Z,69.62
2019-06-10T01:43:51.246Z,69.82
2019-06-10T01:44:50.777Z,69.72
2019-06-10T01:45:51.181Z,69.52
2019-06-10T01:46:51.628Z,69.62
2019-06-10T01:47:51.186Z,69.62
2019-06-10T01:48:52.046Z,69.82
2019-06-10T01:49:51.691Z,69.72
2019-06-10T01:50:51.248Z,69.82
2019-06-10T01:51:51.512Z,69.82
2019-06-10T01:52:51.573Z,69.82
2019-06-10T01:53:51.486Z,69.92
2019-06-10T01:54:51.517Z,70.02
2019-06-10T01:55:51.955Z,70.02
2019-06-10T01:56:51.214Z,70.02
2019-06-10T01:57:51.876Z,69.92
2019-06-10T01:58:51.329Z,69.42
2019-06-10T01:59:50.999Z,69.52
2019-06-10T02:00:50.815Z,69.72
2019-06-10T02:01:51.743Z,69.62
2019-06-10T02:02:52.363Z,69.62
2019-06-10T02:03:51.865Z,69.85
2019-06-10T02:04:51.739Z,70.09
2019-06-10T02:05:51.678Z,70.69
2019-06-10T02:06:51.151Z,71.13
2019-06-10T02:07:51.597Z,71.23
2019-06-10T02:08:51.010Z,71.00
2019-06-10T02:09:51.730Z,70.89
2019-06-10T02:10:50.930Z,71.03
2019-06-10T02:11:51.396Z,71.33
2019-06-10T02:12:50.846Z,71.53
2019-06-10T02:13:51.547Z,71.53
2019-06-10T02:14:50.938Z,71.64
2019-06-10T02:15:51.396Z,71.53
2019-06-10T02:16:50.748Z,71.53
2019-06-10T02:17:50.991Z,71.44
2019-06-10T02:19:00.233Z,71.44
2019-06-10T02:19:51.365Z,71.30
2019-06-10T02:20:51.408Z,71.20
2019-06-10T02:21:51.038Z,71.20
2019-06-10T02:22:51.539Z,71.10
2019-06-10T02:23:52.035Z,70.89
2019-06-10T02:24:50.689Z,70.86
2019-06-10T02:25:51.275Z,70.76
2019-06-10T02:26:51.600Z,70.46
2019-06-10T02:27:50.759Z,70.26
2019-06-10T02:28:51.226Z,70.26
2019-06-10T02:29:50.723Z,70.46
2019-06-10T02:30:55.129Z,70.46
2019-06-10T02:31:52.144Z,70.66
2019-06-10T02:32:52.403Z,70.42
2019-06-10T02:33:52.340Z,70.12
2019-06-10T02:35:03.630Z,69.92
2019-06-10T02:35:53.805Z,69.52
2019-06-10T02:36:53.434Z,69.42
2019-06-10T02:37:50.197Z,69.72
2019-06-10T02:38:53.723Z,70.12
2019-06-10T02:39:50.162Z,70.53
2019-06-10T02:40:53.587Z,70.93
2019-06-10T02:41:53.341Z,71.13
2019-06-10T02:42:50.114Z,71.37
2019-06-10T02:43:53.169Z,71.37
2019-06-10T02:44:53.878Z,71.67
2019-06-10T02:45:52.909Z,71.77
2019-06-10T02:46:50.093Z,71.87
2019-06-10T02:47:53.117Z,71.97
2019-06-10T02:48:50.079Z,72.20
2019-06-10T02:49:59.127Z,72.51
2019-06-10T02:50:53.872Z,72.81
2019-06-10T02:51:50.068Z,73.22
2019-06-10T02:52:52.928Z,73.42
2019-06-10T02:53:53.543Z,73.82
2019-06-10T02:54:53.143Z,74.02
2019-06-10T02:55:53.545Z,74.26
2019-06-10T02:56:53.425Z,74.52
2019-06-10T02:57:49.948Z,74.66
2019-06-10T02:58:53.253Z,75.07
2019-06-10T02:59:49.932Z,75.67
2019-06-10T03:00:49.918Z,75.74
2019-06-10T03:01:49.927Z,75.34
2019-06-10T03:02:52.938Z,75.47
2019-06-10T03:03:51.098Z,75.87
2019-06-10T03:04:49.889Z,76.28
2019-06-10T03:05:53.413Z,76.58
2019-06-10T03:06:49.891Z,76.58
2019-06-10T03:07:53.104Z,76.98
2019-06-10T03:08:49.859Z,76.28
2019-06-10T03:09:49.822Z,75.77
2019-06-10T03:10:49.815Z,75.67
2019-06-10T03:11:53.319Z,75.77
2019-06-10T03:12:49.802Z,75.98
2019-06-10T03:13:49.769Z,75.98
2019-06-10T03:14:49.780Z,75.57
2019-06-10T03:15:52.120Z,76.07
2019-06-10T03:16:49.760Z,75.57
2019-06-10T03:17:52.009Z,75.13
2019-06-10T03:18:49.738Z,75.43
2019-06-10T03:19:50.778Z,75.63
2019-06-10T03:20:49.701Z,75.74
2019-06-10T03:21:52.046Z,75.67
2019-06-10T03:22:49.701Z,75.67
2019-06-10T03:23:49.661Z,76.31
2019-06-10T03:24:49.651Z,76.42
2019-06-10T03:25:49.645Z,76.51
2019-06-10T03:26:52.064Z,76.31
2019-06-10T03:27:49.644Z,77.06
2019-06-10T03:28:51.925Z,77.90
2019-06-10T03:29:49.623Z,79.15
2019-06-10T03:30:55.305Z,80.50
2019-06-10T03:31:54.823Z,81.76
2019-06-10T03:32:49.601Z,82.56
2019-06-10T03:33:53.853Z,82.97
2019-06-10T03:34:49.552Z,83.27
2019-06-10T03:35:49.600Z,83.78
2019-06-10T03:36:49.552Z,83.68
2019-06-10T03:37:49.511Z,83.58
2019-06-10T03:38:49.501Z,83.88
2019-06-10T03:39:49.503Z,83.78
2019-06-10T03:40:49.472Z,83.92
2019-06-10T03:41:49.491Z,84.33
2019-06-10T03:42:51.914Z,84.53
2019-06-10T03:43:49.452Z,84.42
2019-06-10T03:44:49.433Z,84.22
2019-06-10T03:45:49.422Z,84.12
2019-06-10T03:46:49.453Z,84.19
2019-06-10T03:47:49.393Z,84.19
2019-06-10T03:48:49.391Z,84.39
2019-06-10T03:49:52.789Z,84.25
2019-06-10T03:50:52.351Z,84.34
2019-06-10T03:51:49.394Z,83.90
2019-06-10T03:52:49.360Z,83.40
2019-06-10T03:53:49.334Z,82.99
2019-06-10T03:54:49.322Z,82.39
2019-06-10T03:55:49.327Z,82.39
2019-06-10T03:56:49.325Z,82.39
2019-06-10T03:57:49.290Z,82.59
2019-06-10T03:58:49.314Z,83.03
2019-06-10T03:59:49.273Z,83.70
2019-06-10T04:00:49.287Z,84.51
2019-06-10T04:01:49.274Z,84.00
2019-06-10T04:02:49.235Z,84.11
2019-06-10T04:03:49.251Z,83.66
2019-06-10T04:04:49.227Z,83.05
2019-06-10T04:05:49.202Z,81.84
2019-06-10T04:06:49.200Z,81.94
2019-06-10T04:07:49.176Z,81.74
2019-06-10T04:08:49.193Z,81.34
2019-06-10T04:09:49.177Z,80.93
2019-06-10T04:10:49.144Z,81.10
2019-06-10T04:11:49.135Z,81.60
2019-06-10T04:12:49.151Z,81.10
2019-06-10T04:13:49.146Z,80.90
2019-06-10T04:14:49.104Z,80.29
2019-06-10T04:15:49.096Z,79.99
2019-06-10T04:16:49.084Z,79.88
2019-06-10T04:17:49.080Z,79.68
2019-06-10T04:18:49.103Z,79.88
2019-06-10T04:20:05.223Z,79.58
2019-06-10T04:20:52.737Z,79.88
2019-06-10T04:21:49.025Z,80.63
2019-06-10T04:22:49.015Z,81.03
2019-06-10T04:23:49.045Z,81.23
2019-06-10T04:24:48.989Z,81.13
2019-06-10T04:25:48.977Z,81.64
2019-06-10T04:26:48.975Z,81.44
2019-06-10T04:27:48.963Z,81.30
2019-06-10T04:28:48.988Z,81.50
2019-06-10T04:29:48.938Z,81.90
2019-06-10T04:30:48.936Z,81.90
2019-06-10T04:31:48.930Z,82.01
2019-06-10T04:32:48.923Z,82.10
2019-06-10T04:33:48.918Z,82.10
2019-06-10T04:34:48.886Z,82.01
2019-06-10T04:35:48.927Z,81.67
2019-06-10T04:36:48.864Z,81.56
2019-06-10T04:37:48.856Z,81.26
2019-06-10T04:38:48.878Z,81.46
2019-06-10T04:39:48.829Z,81.56
2019-06-10T04:40:48.818Z,81.56
2019-06-10T04:41:48.819Z,81.46
2019-06-10T04:42:48.799Z,82.51
2019-06-10T04:43:48.808Z,82.01
2019-06-10T04:44:48.799Z,82.75
2019-06-10T04:45:48.777Z,82.75
2019-06-10T04:46:48.759Z,83.86
2019-06-10T04:47:48.747Z,84.17
2019-06-10T04:48:48.756Z,83.76
2019-06-10T04:49:48.718Z,83.96
2019-06-10T04:50:48.737Z,83.80
2019-06-10T04:51:48.739Z,83.70
2019-06-10T04:52:48.746Z,84.11
2019-06-10T04:53:48.728Z,84.11
2019-06-10T04:54:48.707Z,84.65
2019-06-10T04:55:48.686Z,85.36
2019-06-10T04:56:48.669Z,86.10
2019-06-10T04:57:48.689Z,86.41
2019-06-10T04:58:48.644Z,86.61
2019-06-10T04:59:48.651Z,86.16
2019-06-10T05:00:48.667Z,85.25
2019-06-10T05:01:48.592Z,84.41
2019-06-10T05:02:48.588Z,84.57
2019-06-10T05:03:48.622Z,84.06
2019-06-10T05:04:48.550Z,83.86
2019-06-10T05:05:48.548Z,83.36
2019-06-10T05:06:48.533Z,83.12
2019-06-10T05:07:48.550Z,82.31
2019-06-10T05:08:48.531Z,82.31
2019-06-10T05:09:48.501Z,82.51
2019-06-10T05:10:48.502Z,82.51
2019-06-10T05:11:48.478Z,82.61
2019-06-10T05:12:48.470Z,82.51
2019-06-10T05:13:48.490Z,82.41
2019-06-10T05:14:48.447Z,82.21
2019-06-10T05:15:48.449Z,82.10
2019-06-10T05:16:48.440Z,82.07
2019-06-10T05:17:48.440Z,82.07
2019-06-10T05:18:51.641Z,81.96
2019-06-10T05:19:49.425Z,82.47
2019-06-10T05:20:56.049Z,82.27
2019-06-10T05:21:49.371Z,81.76
2019-06-10T05:22:48.388Z,81.67
2019-06-10T05:23:48.342Z,81.36
2019-06-10T05:24:48.338Z,81.36
2019-06-10T05:25:48.322Z,81.05
2019-06-10T05:26:48.318Z,80.65
2019-06-10T05:27:48.341Z,81.16
2019-06-10T05:28:48.303Z,80.96
2019-06-10T05:29:48.272Z,80.85
2019-06-10T05:30:48.292Z,80.65
2019-06-10T05:31:48.273Z,80.35
2019-06-10T05:32:48.285Z,79.64
2019-06-10T05:33:48.248Z,79.50
2019-06-10T05:34:48.298Z,79.71
2019-06-10T05:35:48.213Z,80.01
2019-06-10T05:36:48.230Z,80.21
2019-06-10T05:37:48.229Z,80.21
2019-06-10T05:38:48.186Z,80.62
2019-06-10T05:39:48.266Z,79.91
2019-06-10T05:40:48.161Z,79.10
2019-06-10T05:41:50.270Z,79.71
2019-06-10T05:42:48.143Z,79.91
2019-06-10T05:43:48.131Z,80.51
2019-06-10T05:44:48.133Z,80.41
2019-06-10T05:45:48.106Z,79.50
2019-06-10T05:46:48.093Z,79.81
2019-06-10T05:47:48.085Z,79.21
2019-06-10T05:48:48.074Z,79.50
2019-06-10T05:49:48.083Z,79.61
2019-06-10T05:51:00.141Z,80.01
2019-06-10T05:51:49.034Z,80.41
2019-06-10T05:52:48.035Z,80.72
2019-06-10T05:53:49.175Z,81.12
2019-06-10T05:54:48.027Z,81.62
2019-06-10T05:55:48.003Z,81.73
2019-06-10T05:56:47.983Z,81.87
2019-06-10T05:57:47.988Z,81.96
2019-06-10T05:58:48.009Z,82.07
2019-06-10T05:59:47.987Z,82.37
2019-06-10T06:00:47.978Z,82.57
2019-06-10T06:01:47.949Z,82.67
2019-06-10T06:02:47.958Z,82.78
2019-06-10T06:03:47.947Z,83.07
2019-06-10T06:04:47.935Z,83.28
2019-06-10T06:05:47.897Z,83.68
2019-06-10T06:06:47.922Z,83.68
2019-06-10T06:08:01.392Z,83.78
2019-06-10T06:08:48.854Z,83.68
2019-06-10T06:09:47.885Z,84.39
2019-06-10T06:10:47.827Z,84.79
2019-06-10T06:11:47.826Z,84.89
2019-06-10T06:12:47.882Z,85.30
2019-06-10T06:13:47.805Z,85.70
2019-06-10T06:14:47.825Z,86.10
2019-06-10T06:15:47.795Z,86.30
2019-06-10T06:16:47.783Z,86.21
2019-06-10T06:18:03.249Z,86.10
2019-06-10T06:18:48.745Z,86.51
2019-06-10T06:19:47.728Z,86.30
2019-06-10T06:20:47.723Z,86.30
2019-06-10T06:21:48.025Z,86.10
2019-06-10T06:22:47.696Z,86.61
2019-06-10T06:23:47.723Z,86.61
2019-06-10T06:24:47.707Z,86.41
2019-06-10T06:25:47.666Z,86.36
2019-06-10T06:26:47.697Z,86.16
2019-06-10T06:27:47.668Z,85.96
2019-06-10T06:28:47.667Z,85.86
2019-06-10T06:29:47.639Z,85.46
2019-06-10T06:30:47.637Z,84.85
2019-06-10T06:31:47.598Z,84.95
2019-06-10T06:32:47.587Z,85.16
2019-06-10T06:33:47.633Z,84.85
2019-06-10T06:34:47.567Z,84.55
2019-06-10T06:35:47.596Z,84.65
2019-06-10T06:36:47.578Z,85.05
2019-06-10T06:37:47.564Z,85.46
2019-06-10T06:38:47.557Z,85.56
2019-06-10T06:39:47.516Z,86.07
2019-06-10T06:40:47.508Z,85.56
2019-06-10T06:41:47.552Z,85.46
2019-06-10T06:42:47.526Z,85.16
2019-06-10T06:43:47.528Z,84.75
2019-06-10T06:44:47.505Z,84.85
2019-06-10T06:45:47.483Z,84.65
2019-06-10T06:46:47.430Z,84.55
2019-06-10T06:47:47.427Z,84.65
2019-06-10T06:48:47.441Z,84.55
2019-06-10T06:49:47.402Z,84.85
2019-06-10T06:51:01.722Z,84.19
2019-06-10T06:51:55.183Z,84.09
2019-06-10T06:53:19.005Z,84.39
2019-06-10T06:53:53.049Z,84.29
2019-06-10T06:54:48.350Z,84.19
2019-06-10T06:55:47.356Z,84.35
2019-06-10T06:56:47.321Z,84.65
2019-06-10T06:57:47.339Z,84.15
2019-06-10T06:58:47.306Z,84.05
2019-06-10T06:59:47.290Z,84.01
2019-06-10T07:01:03.647Z,83.80
2019-06-10T07:01:48.295Z,83.80
2019-06-10T07:02:47.259Z,83.80
2019-06-10T07:03:47.250Z,83.91
2019-06-10T07:04:47.266Z,83.80
2019-06-10T07:05:47.222Z,83.40
2019-06-10T07:06:47.242Z,83.50
2019-06-10T07:07:47.200Z,83.50
2019-06-10T07:09:00.453Z,83.00
2019-06-10T07:09:48.211Z,82.86
2019-06-10T07:10:47.182Z,82.70
2019-06-10T07:11:47.221Z,82.79
2019-06-10T07:12:47.171Z,83.30
2019-06-10T07:13:47.146Z,83.50
2019-06-10T07:14:47.142Z,83.66
2019-06-10T07:15:47.621Z,83.46
2019-06-10T07:16:47.132Z,83.56
2019-06-10T07:17:47.123Z,83.66
2019-06-10T07:18:50.156Z,83.36
2019-06-10T07:19:47.071Z,82.92
2019-06-10T07:20:47.073Z,82.92
2019-06-10T07:22:05.364Z,82.18
2019-06-10T07:22:48.079Z,82.18
2019-06-10T07:23:47.200Z,81.47
2019-06-10T07:24:47.728Z,81.07
2019-06-10T07:25:47.763Z,80.73
2019-06-10T07:26:53.977Z,80.49
2019-06-10T07:27:48.025Z,80.15
2019-06-10T07:28:47.653Z,79.44
2019-06-10T07:29:47.488Z,78.60
2019-06-10T07:30:51.797Z,77.90
2019-06-10T07:31:50.237Z,77.36
2019-06-10T07:32:47.953Z,76.65
2019-06-10T07:33:47.465Z,76.86
2019-06-10T07:34:47.174Z,77.70
2019-06-10T07:35:46.901Z,77.36
2019-06-10T07:36:46.894Z,76.65
2019-06-10T07:37:46.890Z,75.55
2019-06-10T07:38:49.077Z,75.75
2019-06-10T07:39:46.884Z,75.11
2019-06-10T07:40:46.857Z,75.38
2019-06-10T07:41:47.912Z,73.97
2019-06-10T07:42:46.825Z,71.97
2019-06-10T07:43:49.643Z,70.83
2019-06-10T07:44:46.865Z,70.09
2019-06-10T07:45:48.059Z,69.86
2019-06-10T07:46:46.783Z,69.93
2019-06-10T07:47:46.783Z,69.23
2019-06-10T07:48:48.648Z,70.16
2019-06-10T07:49:46.776Z,70.56
2019-06-10T07:50:46.756Z,69.66
2019-06-10T07:51:46.796Z,70.16
2019-06-10T07:52:47.004Z,70.26
2019-06-10T07:53:46.960Z,70.53
2019-06-10T07:54:46.690Z,71.43
2019-06-10T07:55:46.794Z,71.73
2019-06-10T07:56:50.182Z,72.27
2019-06-10T07:57:46.718Z,72.24
2019-06-10T07:58:47.611Z,72.03
2019-06-10T07:59:46.650Z,71.80
2019-06-10T08:00:48.480Z,71.56
2019-06-10T08:01:51.385Z,69.73
2019-06-10T08:02:47.661Z,69.62
2019-06-10T08:03:46.750Z,69.82
2019-06-10T08:04:46.586Z,69.16
2019-06-10T08:05:46.831Z,70.06
2019-06-10T08:06:49.787Z,70.66
2019-06-10T08:07:48.812Z,70.56
2019-06-10T08:08:47.301Z,69.93
2019-06-10T08:09:47.470Z,69.09
2019-06-10T08:10:48.096Z,66.89
2019-06-10T08:11:48.281Z,68.02
2019-06-10T08:12:48.279Z,68.82
2019-06-10T08:13:47.964Z,68.59
2019-06-10T08:14:47.882Z,68.05
2019-06-10T08:15:46.498Z,66.52
2019-06-10T08:16:46.842Z,66.02
2019-06-10T08:17:46.489Z,66.32
2019-06-10T08:19:12.272Z,66.93
2019-06-10T08:19:50.785Z,67.19
2019-06-10T08:20:47.709Z,65.96
2019-06-10T08:21:49.201Z,65.23
2019-06-10T08:22:54.017Z,64.37
2019-06-10T08:23:48.519Z,62.91
2019-06-10T08:24:47.783Z,62.38
2019-06-10T08:25:52.963Z,60.96
2019-06-10T08:26:47.783Z,61.03
2019-06-10T08:27:47.858Z,61.57
2019-06-10T08:28:47.949Z,60.64
2019-06-10T08:29:49.480Z,59.72
2019-06-10T08:30:46.382Z,58.60
2019-06-10T08:31:48.434Z,57.87
2019-06-10T08:32:46.828Z,56.66
2019-06-10T08:33:48.787Z,55.83
2019-06-10T08:34:47.947Z,56.56
2019-06-10T08:35:56.086Z,55.36
2019-06-10T08:36:50.587Z,55.04
2019-06-10T08:37:47.479Z,55.15
2019-06-10T08:38:48.608Z,54.15
2019-06-10T08:39:47.606Z,53.36
2019-06-10T08:40:48.355Z,54.25
2019-06-10T08:41:49.071Z,54.62
2019-06-10T08:42:47.480Z,54.52
2019-06-10T08:43:48.416Z,54.10
2019-06-10T08:44:48.429Z,53.88
2019-06-10T08:45:48.396Z,53.95
2019-06-10T08:46:47.270Z,52.04
2019-06-10T08:47:47.729Z,52.07
2019-06-10T08:48:48.113Z,51.97
2019-06-10T08:49:47.924Z,51.40
2019-06-10T08:50:49.631Z,51.52
2019-06-10T08:51:48.862Z,52.34
2019-06-10T08:53:03.319Z,53.75
2019-06-10T08:53:49.950Z,55.36
2019-06-10T08:54:49.244Z,55.07
2019-06-10T08:55:50.085Z,54.97
2019-06-10T08:56:49.454Z,55.07
2019-06-10T08:57:47.534Z,53.80
2019-06-10T08:58:49.687Z,55.55
2019-06-10T08:59:47.769Z,56.64
2019-06-10T09:00:48.227Z,56.84
2019-06-10T09:01:49.793Z,56.77
2019-06-10T09:02:49.978Z,57.17
2019-06-10T09:03:49.068Z,56.57
2019-06-10T09:04:48.788Z,57.43
2019-06-10T09:05:49.085Z,57.81
2019-06-10T09:06:49.122Z,58.25
2019-06-10T09:07:49.631Z,56.90
2019-06-10T09:08:49.936Z,55.68
2019-06-10T09:09:49.101Z,54.35
2019-06-10T09:10:49.427Z,53.99
2019-06-10T09:11:49.687Z,52.69
2019-06-10T09:12:50.479Z,52.81
2019-06-10T09:13:48.448Z,51.03
2019-06-10T09:14:48.359Z,50.34
2019-06-10T09:16:03.679Z,51.42
2019-06-10T09:16:48.891Z,51.70
2019-06-10T09:17:49.320Z,51.84
2019-06-10T09:18:49.370Z,51.40
2019-06-10T09:19:48.797Z,49.87
2019-06-10T09:20:50.982Z,49.04
2019-06-10T09:21:51.107Z,48.59
2019-06-10T09:22:54.361Z,47.66
2019-06-10T09:23:50.434Z,46.06
2019-06-10T09:24:49.381Z,45.14
2019-06-10T09:25:49.551Z,43.94
2019-06-10T09:26:49.550Z,43.23
2019-06-10T09:27:48.020Z,43.12
2019-06-10T09:28:50.809Z,42.72
2019-06-10T09:29:49.745Z,42.02
2019-06-10T09:30:52.540Z,41.39
2019-06-10T09:31:49.655Z,41.56
2019-06-10T09:32:51.178Z,41.17
2019-06-10T09:33:50.801Z,41.25
2019-06-10T09:34:52.208Z,40.94
2019-06-10T09:35:49.567Z,40.53
2019-06-10T09:36:49.656Z,40.01
2019-06-10T09:37:49.986Z,40.89
2019-06-10T09:38:48.719Z,39.92
2019-06-10T09:39:51.782Z,38.65
2019-06-10T09:40:51.342Z,38.84
2019-06-10T09:41:55.509Z,38.35
2019-06-10T09:42:49.669Z,38.04
2019-06-10T09:43:50.327Z,37.87
2019-06-10T09:44:48.700Z,37.99
2019-06-10T09:45:47.565Z,38.18
2019-06-10T09:46:48.621Z,38.55
2019-06-10T09:47:49.060Z,38.87
2019-06-10T09:48:49.769Z,38.96
2019-06-10T09:49:49.213Z,38.49
2019-06-10T09:50:50.432Z,39.49
2019-06-10T09:51:49.898Z,39.76
2019-06-10T09:52:50.987Z,39.18
2019-06-10T09:53:54.625Z,38.96
2019-06-10T09:54:50.262Z,38.87
2019-06-10T09:55:49.714Z,38.57
2019-06-10T09:56:48.450Z,38.96
2019-06-10T09:57:47.637Z,38.16
2019-06-10T09:58:48.111Z,37.87
2019-06-10T09:59:49.669Z,37.65
2019-06-10T10:00:50.481Z,37.09
2019-06-10T10:01:49.064Z,37.55
2019-06-10T10:02:48.792Z,36.98
2019-06-10T10:03:50.325Z,37.67
2019-06-10T10:04:50.593Z,38.40
2019-06-10T10:05:59.425Z,39.08
2019-06-10T10:06:48.959Z,38.89
2019-06-10T10:07:48.908Z,39.08
2019-06-10T10:08:52.406Z,39.37
2019-06-10T10:09:49.813Z,39.08
2019-06-10T10:10:50.125Z,38.30
2019-06-10T10:11:47.714Z,38.43
2019-06-10T10:12:47.395Z,38.34
2019-06-10T10:13:47.657Z,38.43
2019-06-10T10:14:48.042Z,39.23
2019-06-10T10:15:45.610Z,39.04
2019-06-10T10:16:49.376Z,38.76
2019-06-10T10:17:48.263Z,38.86
2019-06-10T10:18:48.967Z,38.67
2019-06-10T10:19:48.681Z,40.29
2019-06-10T10:20:48.061Z,41.29
2019-06-10T10:21:49.432Z,41.29
2019-06-10T10:22:47.653Z,41.14
2019-06-10T10:23:54.235Z,42.04
2019-06-10T10:24:47.487Z,42.96
2019-06-10T10:25:47.811Z,44.15
2019-06-10T10:26:47.172Z,43.75
2019-06-10T10:27:48.339Z,43.38
2019-06-10T10:28:48.009Z,43.86
2019-06-10T10:29:47.154Z,45.30
2019-06-10T10:30:46.997Z,44.91
2019-06-10T10:31:48.977Z,43.90
2019-06-10T10:32:48.940Z,43.80
2019-06-10T10:33:46.239Z,44.39
2019-06-10T10:34:47.001Z,43.59
2019-06-10T10:35:46.395Z,44.57
2019-06-10T10:36:47.067Z,43.98
2019-06-10T10:37:44.971Z,44.76
2019-06-10T10:38:44.964Z,45.26
2019-06-10T10:39:45.218Z,40.62
2019-06-10T10:40:47.468Z,39.06
2019-06-10T10:41:46.774Z,42.14
2019-06-10T10:42:51.364Z,42.26
2019-06-10T10:43:48.856Z,42.56
2019-06-10T10:44:49.201Z,41.85
2019-06-10T10:45:47.860Z,42.64
2019-06-10T10:46:45.658Z,43.21
2019-06-10T10:47:46.879Z,39.54
2019-06-10T10:48:45.044Z,39.95
2019-06-10T10:49:45.048Z,41.12
2019-06-10T10:50:45.578Z,41.31
2019-06-10T10:51:44.935Z,41.71
2019-06-10T10:52:46.338Z,42.38
2019-06-10T10:53:48.595Z,42.58
2019-06-10T10:54:46.742Z,40.98
2019-06-10T10:55:45.271Z,41.27
2019-06-10T10:56:46.185Z,40.56
2019-06-10T10:57:45.216Z,40.05
2019-06-10T10:58:46.987Z,39.86
2019-06-10T10:59:46.035Z,40.25
2019-06-10T11:00:46.818Z,39.76
2019-06-10T11:01:45.763Z,39.07
2019-06-10T11:02:46.783Z,38.68
2019-06-10T11:03:47.326Z,38.60
2019-06-10T11:04:46.115Z,39.78
2019-06-10T11:05:47.644Z,40.25
2019-06-10T11:06:46.116Z,39.94
2019-06-10T11:07:45.862Z,39.52
2019-06-10T11:08:46.579Z,39.50
2019-06-10T11:09:45.395Z,38.13
2019-06-10T11:10:47.456Z,38.23
2019-06-10T11:11:45.808Z,38.74
2019-06-10T11:12:44.976Z,39.82
2019-06-10T11:13:45.327Z,39.32
2019-06-10T11:14:44.890Z,39.60
2019-06-10T11:15:45.770Z,39.70
2019-06-10T11:16:45.234Z,40.88
2019-06-10T11:17:45.097Z,40.19
2019-06-10T11:18:45.209Z,38.34
2019-06-10T11:19:45.166Z,38.76
2019-06-10T11:20:45.270Z,38.78
2019-06-10T11:21:45.286Z,39.50
2019-06-10T11:22:45.816Z,40.58
2019-06-10T11:23:46.091Z,41.08
2019-06-10T11:24:46.186Z,40.39
2019-06-10T11:25:45.694Z,41.00
2019-06-10T11:26:45.729Z,41.99
2019-06-10T11:27:46.300Z,41.99
2019-06-10T11:28:45.278Z,42.99
2019-06-10T11:29:44.405Z,42.72
2019-06-10T11:30:45.262Z,43.43
2019-06-10T11:31:44.405Z,43.74
2019-06-10T11:32:46.004Z,43.65
2019-06-10T11:33:44.356Z,43.47
2019-06-10T11:34:45.678Z,44.28
2019-06-10T11:35:44.340Z,45.07
2019-06-10T11:36:45.892Z,45.27
2019-06-10T11:37:44.318Z,45.25
2019-06-10T11:38:44.301Z,43.77
2019-06-10T11:39:44.337Z,43.66
2019-06-10T11:40:44.302Z,43.66
2019-06-10T11:41:44.266Z,43.87
2019-06-10T11:42:44.267Z,44.97
2019-06-10T11:43:44.274Z,46.16
2019-06-10T11:44:44.240Z,46.75
2019-06-10T11:45:48.366Z,46.95
2019-06-10T11:46:46.418Z,46.45
2019-06-10T11:47:44.234Z,47.41
2019-06-10T11:48:44.470Z,48.45
2019-06-10T11:49:44.254Z,48.87
2019-06-10T11:50:44.211Z,49.27
2019-06-10T11:51:44.167Z,50.28
2019-06-10T11:52:44.221Z,49.88
2019-06-10T11:53:44.228Z,50.73
2019-06-10T11:54:55.624Z,50.65
2019-06-10T11:55:45.128Z,51.47
2019-06-10T11:56:44.137Z,51.77
2019-06-10T11:57:44.129Z,52.00
2019-06-10T11:58:44.095Z,52.59
2019-06-10T11:59:44.231Z,52.59
2019-06-10T12:00:44.102Z,54.21
2019-06-10T12:01:44.063Z,54.60
2019-06-10T12:02:44.939Z,55.80
2019-06-10T12:03:44.056Z,55.80
2019-06-10T12:04:44.023Z,56.07
2019-06-10T12:05:44.052Z,56.27
2019-06-10T12:06:44.032Z,56.67
2019-06-10T12:07:44.046Z,56.77
2019-06-10T12:08:44.003Z,56.94
2019-06-10T12:09:43.984Z,57.17
2019-06-10T12:10:43.963Z,57.66
2019-06-10T12:11:44.087Z,58.51
2019-06-10T12:12:43.952Z,58.51
2019-06-10T12:13:43.933Z,58.61
2019-06-10T12:14:43.930Z,58.39
2019-06-10T12:16:30.568Z,58.06
2019-06-10T12:17:17.644Z,57.96
2019-06-10T12:17:50.913Z,57.83
2019-06-10T12:18:44.875Z,57.53
2019-06-10T12:19:43.877Z,57.53
2019-06-10T12:20:43.892Z,57.64
2019-06-10T12:21:43.846Z,57.31
2019-06-10T12:22:43.875Z,57.34
2019-06-10T12:23:43.850Z,57.43
2019-06-10T12:24:43.817Z,57.86
2019-06-10T12:25:47.669Z,58.06
2019-06-10T12:26:43.809Z,57.86
2019-06-10T12:27:43.798Z,58.16
2019-06-10T12:28:43.795Z,58.16
2019-06-10T12:29:43.757Z,57.76
2019-06-10T12:30:43.747Z,57.76
2019-06-10T12:31:43.738Z,57.66
2019-06-10T12:32:43.767Z,57.83
2019-06-10T12:33:43.721Z,57.70
2019-06-10T12:34:46.201Z,56.81
2019-06-10T12:35:43.700Z,56.09
2019-06-10T12:36:43.694Z,56.68
2019-06-10T12:37:43.727Z,55.69
2019-06-10T12:38:43.775Z,56.29
2019-06-10T12:39:43.651Z,55.69
2019-06-10T12:40:43.663Z,56.09
2019-06-10T12:41:43.639Z,55.49
2019-06-10T12:42:43.620Z,55.79
2019-06-10T12:43:43.671Z,55.79
2019-06-10T12:44:43.620Z,55.69
2019-06-10T12:45:43.938Z,55.69
2019-06-10T12:46:43.584Z,56.19
2019-06-10T12:47:43.572Z,56.21
2019-06-10T12:48:43.596Z,56.12
2019-06-10T12:49:43.558Z,56.44
2019-06-10T12:50:43.541Z,56.24
2019-06-10T12:51:44.051Z,56.21
2019-06-10T12:52:43.518Z,56.21